Terminal Aerodrome Forecast
Issued by NWS Nashville, TN

Current Version | Previous Version | Text Only | Print | Product List | Glossary On
Versions: 1 2 3 4 5 6 7 8 9 10 11 12 13 14 15 16 17 18 19 20 21 22 23 24 25 26 27 28 29
000
FTUS44 KOHX 250807 AAD
TAFCSV
TAF AMD
KCSV 250807Z 2508/2606 23008G21KT P6SM SCT026 BKN040 OVC070
      TEMPO 2508/2509 23015G35KT 1SM +RA OVC007
     FM250900 23012G22KT 5SM -RA OVC012
     FM251500 28007KT P6SM VCSH BKN025
     FM251800 28007KT P6SM SCT040 BKN200
     FM260400 34003KT P6SM OVC080=

USA.gov is the U.S. government's official web portal to all federal, state and local government web resources and services.